Terminal Aerodrome Forecast
Issued by NWS Missoula, MT

Home | Current Version | Previous Version | Text Only | Print | Product List | Glossary On
Versions: 1 2 3 4 5 6 7 8 9 10 11 12 13 14 15
000
FTUS45 KMSO 301737
TAFMSO
TAF
KMSO 301737Z 3018/3118 33010KT P6SM VCSH BKN040 OVC060
     FM310200 33006KT P6SM BKN080
     FM310600 VRB03KT P6SM VCSH BKN040 OVC080
     FM311200 01006KT P6SM BKN050=

USA.gov is the U.S. government's official web portal to all federal, state and local government web resources and services.